createdAt,value
2018-04-30T00:00:53.756Z,148.73
2018-04-30T00:03:22.572Z,125.63
2018-04-30T00:05:51.320Z,114.60
2018-04-30T00:08:20.297Z,106.67
2018-04-30T00:10:49.104Z,104.17
2018-04-30T00:13:17.868Z,113.90
2018-04-30T00:15:46.701Z,97.33
2018-04-30T00:18:15.637Z,93.70
2018-04-30T00:20:44.520Z,95.77
2018-04-30T00:23:13.340Z,109.53
2018-04-30T00:25:42.154Z,98.87
2018-04-30T00:28:11.120Z,101.40
2018-04-30T00:30:40.137Z,84.30
2018-04-30T00:33:08.967Z,72.90
2018-04-30T00:35:37.742Z,73.60
2018-04-30T00:38:06.529Z,74.70
2018-04-30T00:40:35.750Z,82.90
2018-04-30T00:43:04.683Z,91.03
2018-04-30T00:45:33.561Z,101.43
2018-04-30T00:48:02.432Z,80.27
2018-04-30T00:50:31.393Z,76.07
2018-04-30T00:53:00.405Z,80.73
2018-04-30T00:55:29.277Z,70.80
2018-04-30T00:57:58.238Z,70.23
2018-04-30T01:00:27.198Z,71.47
2018-04-30T01:02:56.783Z,73.03
2018-04-30T01:05:25.544Z,73.67
2018-04-30T01:07:54.265Z,70.83
2018-04-30T01:10:23.257Z,72.20
2018-04-30T01:12:52.052Z,61.80
2018-04-30T01:15:20.875Z,72.63
2018-04-30T01:17:49.770Z,72.03
2018-04-30T01:20:18.669Z,65.00
2018-04-30T01:22:47.492Z,59.43
2018-04-30T01:25:16.386Z,67.07
2018-04-30T01:27:45.208Z,66.00
2018-04-30T01:30:14.909Z,60.33
2018-04-30T01:32:44.486Z,65.83
2018-04-30T01:35:13.343Z,71.90
2018-04-30T01:37:42.717Z,71.27
2018-04-30T01:40:12.609Z,75.27
2018-04-30T01:42:41.585Z,77.97
2018-04-30T01:45:11.217Z,73.53
2018-04-30T01:47:40.982Z,81.77
2018-04-30T01:50:09.880Z,69.57
2018-04-30T01:52:38.697Z,73.23
2018-04-30T01:55:07.839Z,72.77
2018-04-30T01:57:37.568Z,75.20
2018-04-30T02:00:06.658Z,82.77
2018-04-30T02:02:35.522Z,100.03
2018-04-30T02:05:05.101Z,107.67
2018-04-30T02:07:34.404Z,126.47
2018-04-30T02:10:03.646Z,123.23
2018-04-30T02:12:32.440Z,123.73
2018-04-30T02:15:01.607Z,135.13
2018-04-30T02:17:30.392Z,128.53
2018-04-30T02:19:59.137Z,144.00
2018-04-30T02:22:27.913Z,135.33
2018-04-30T02:24:56.828Z,144.43
2018-04-30T02:27:25.943Z,150.33
2018-04-30T02:29:54.645Z,159.07
2018-04-30T02:32:24.246Z,172.63
2018-04-30T02:34:52.985Z,177.73
2018-04-30T02:37:21.815Z,172.93
2018-04-30T02:39:51.484Z,173.00
2018-04-30T02:42:20.372Z,164.93
2018-04-30T02:44:49.355Z,170.97
2018-04-30T02:47:18.458Z,154.53
2018-04-30T02:49:47.183Z,150.77
2018-04-30T02:52:16.808Z,160.30
2018-04-30T02:54:45.574Z,148.23
2018-04-30T02:57:14.377Z,159.53
2018-04-30T02:59:43.365Z,148.67
2018-04-30T03:02:12.472Z,167.67
2018-04-30T03:04:41.935Z,152.83
2018-04-30T03:07:10.747Z,159.07
2018-04-30T03:09:39.712Z,158.93
2018-04-30T03:12:08.708Z,153.70
2018-04-30T03:14:37.941Z,150.70
2018-04-30T03:17:07.010Z,153.77
2018-04-30T03:19:35.861Z,151.33
2018-04-30T03:22:04.710Z,151.87
2018-04-30T03:24:33.624Z,147.97
2018-04-30T03:27:02.445Z,140.23
2018-04-30T03:29:31.250Z,141.07
2018-04-30T03:32:00.081Z,132.20
2018-04-30T03:34:28.957Z,124.67
2018-04-30T03:36:57.967Z,114.67
2018-04-30T03:39:27.018Z,114.23
2018-04-30T03:41:55.793Z,120.93
2018-04-30T03:44:24.649Z,115.67
2018-04-30T03:46:53.521Z,116.97
2018-04-30T03:49:23.323Z,116.57
2018-04-30T03:51:53.247Z,126.57
2018-04-30T03:54:22.833Z,122.53
2018-04-30T03:56:51.590Z,165.13
2018-04-30T03:59:20.337Z,161.93
2018-04-30T04:02:00.913Z,166.10
2018-04-30T04:07:32.073Z,166.40
2018-04-30T04:10:00.979Z,164.33
2018-04-30T04:12:30.602Z,161.90
2018-04-30T04:14:59.449Z,166.93
2018-04-30T04:17:29.335Z,174.57
2018-04-30T04:19:58.167Z,160.37
2018-04-30T04:22:27.847Z,147.60
2018-04-30T04:24:56.645Z,158.27
2018-04-30T04:27:25.453Z,150.60
2018-04-30T04:29:54.576Z,156.43
2018-04-30T04:32:23.575Z,161.37
2018-04-30T04:34:52.779Z,165.80
2018-04-30T04:37:22.021Z,167.03
2018-04-30T04:39:51.031Z,170.30
2018-04-30T04:42:24.877Z,179.93
2018-04-30T04:44:55.969Z,193.47
2018-04-30T04:47:24.931Z,164.30
2018-04-30T04:49:55.839Z,180.67
2018-04-30T04:52:25.113Z,168.90
2018-04-30T04:54:54.718Z,162.93
2018-04-30T04:57:24.015Z,152.30
2018-04-30T04:59:53.668Z,155.67
2018-04-30T05:02:23.384Z,145.27
2018-04-30T05:04:53.080Z,168.40
2018-04-30T05:07:21.996Z,166.83
2018-04-30T05:09:51.831Z,164.93
2018-04-30T05:15:21.360Z,197.83
2018-04-30T05:17:50.802Z,180.17
2018-04-30T05:20:19.997Z,232.13
2018-04-30T05:22:48.837Z,199.27
2018-04-30T05:25:18.020Z,176.00
2018-04-30T05:27:46.831Z,181.53
2018-04-30T05:30:15.774Z,171.67
2018-04-30T05:32:44.540Z,187.10
2018-04-30T05:35:13.496Z,195.50
2018-04-30T05:37:42.376Z,196.60
2018-04-30T05:40:11.228Z,195.00
2018-04-30T05:42:40.444Z,194.70
2018-04-30T05:45:09.335Z,184.43
2018-04-30T05:47:38.292Z,199.57
2018-04-30T05:50:07.687Z,186.83
2018-04-30T05:52:36.599Z,189.13
2018-04-30T05:55:05.432Z,193.60
2018-04-30T05:57:34.161Z,206.97
2018-04-30T06:00:03.840Z,227.20
2018-04-30T06:02:32.801Z,208.00
2018-04-30T06:05:01.508Z,210.40
2018-04-30T06:07:31.023Z,195.70
2018-04-30T06:09:59.814Z,200.87
2018-04-30T06:12:28.578Z,195.60
2018-04-30T06:14:57.400Z,150.53
2018-04-30T06:17:26.837Z,151.63
2018-04-30T06:19:55.673Z,140.67
2018-04-30T06:22:24.495Z,136.80
2018-04-30T06:24:53.295Z,135.83
2018-04-30T06:27:22.048Z,128.83
2018-04-30T06:29:51.505Z,157.40
2018-04-30T06:32:21.017Z,152.80
2018-04-30T06:34:49.933Z,149.23
2018-04-30T06:37:19.325Z,147.13
2018-04-30T06:39:48.066Z,146.53
2018-04-30T06:42:17.879Z,142.57
2018-04-30T06:44:46.677Z,156.63
2018-04-30T06:47:15.321Z,150.00
2018-04-30T06:49:44.200Z,167.40
2018-04-30T06:52:13.741Z,148.13
2018-04-30T06:54:43.757Z,154.73
2018-04-30T06:57:12.552Z,149.07
2018-04-30T06:59:41.578Z,153.53
2018-04-30T07:02:10.350Z,146.27
2018-04-30T07:04:39.637Z,146.00
2018-04-30T07:07:08.372Z,151.60
2018-04-30T07:09:38.095Z,148.40
2018-04-30T07:12:06.685Z,147.20
2018-04-30T07:14:35.830Z,156.00
2018-04-30T07:17:05.026Z,151.90
2018-04-30T07:19:33.689Z,152.70
2018-04-30T07:22:02.516Z,146.77
2018-04-30T07:24:31.418Z,144.63
2018-04-30T07:27:00.341Z,147.00
2018-04-30T07:29:29.307Z,145.03
2018-04-30T07:31:58.514Z,130.43
2018-04-30T07:34:27.270Z,136.37
2018-04-30T07:36:57.193Z,132.43
2018-04-30T07:39:26.947Z,127.73
2018-04-30T07:41:55.758Z,123.63
2018-04-30T07:44:25.559Z,121.07
2018-04-30T07:46:55.143Z,116.77
2018-04-30T07:49:24.097Z,113.50
2018-04-30T07:51:52.931Z,119.40
2018-04-30T07:54:22.479Z,108.27
2018-04-30T07:56:51.693Z,118.17
2018-04-30T07:59:20.755Z,103.87
2018-04-30T08:01:50.332Z,107.57
2018-04-30T08:04:19.514Z,102.83
2018-04-30T08:06:48.284Z,110.37
2018-04-30T08:09:17.256Z,105.17
2018-04-30T08:11:46.241Z,99.27
2018-04-30T08:14:15.312Z,100.70
2018-04-30T08:16:44.854Z,103.80
2018-04-30T08:19:14.163Z,105.43
2018-04-30T08:21:43.126Z,104.90
2018-04-30T08:24:11.997Z,102.70
2018-04-30T08:26:40.737Z,96.43
2018-04-30T08:29:09.501Z,98.00
2018-04-30T08:31:38.313Z,98.27
2018-04-30T08:34:07.862Z,99.80
2018-04-30T08:36:36.716Z,101.63
2018-04-30T08:39:06.313Z,102.13
2018-04-30T08:41:35.189Z,99.70
2018-04-30T08:44:04.166Z,99.47
2018-04-30T08:46:32.940Z,105.93
2018-04-30T08:49:02.387Z,107.77
2018-04-30T08:51:31.353Z,103.33
2018-04-30T08:54:00.074Z,104.30
2018-04-30T08:56:28.813Z,101.70
2018-04-30T08:58:58.312Z,117.50
2018-04-30T09:01:28.336Z,109.80
2018-04-30T09:03:57.472Z,109.83
2018-04-30T09:06:27.645Z,105.87
2018-04-30T09:08:58.053Z,105.47
2018-04-30T09:11:27.975Z,100.60
2018-04-30T09:14:02.744Z,102.70
2018-04-30T09:16:32.151Z,111.10
2018-04-30T09:19:02.263Z,100.17
2018-04-30T09:21:31.798Z,108.60
2018-04-30T09:24:00.698Z,97.47
2018-04-30T09:26:30.655Z,111.60
2018-04-30T09:29:00.089Z,100.77
2018-04-30T09:31:28.774Z,102.73
2018-04-30T09:33:57.787Z,108.77
2018-04-30T09:36:26.597Z,100.93
2018-04-30T09:38:55.699Z,103.73
2018-04-30T09:41:24.662Z,100.47
2018-04-30T09:43:53.522Z,103.17
2018-04-30T09:46:22.435Z,93.17
2018-04-30T09:48:51.156Z,100.93
2018-04-30T09:51:20.150Z,114.07
2018-04-30T09:53:49.106Z,99.93
2018-04-30T09:56:18.634Z,97.97
2018-04-30T09:58:47.528Z,103.07
2018-04-30T10:01:16.248Z,103.13
2018-04-30T10:03:45.822Z,92.67
2018-04-30T10:06:15.035Z,89.63
2018-04-30T10:08:43.845Z,95.83
2018-04-30T10:11:13.313Z,95.87
2018-04-30T10:13:42.130Z,91.00
2018-04-30T10:16:10.946Z,101.80
2018-04-30T10:18:39.680Z,98.03
2018-04-30T10:21:08.603Z,88.77
2018-04-30T10:23:38.294Z,85.53
2018-04-30T10:26:07.006Z,85.80
2018-04-30T10:28:36.791Z,81.30
2018-04-30T10:31:05.576Z,85.33
2018-04-30T10:33:35.572Z,92.60
2018-04-30T10:36:04.353Z,88.40
2018-04-30T10:38:33.149Z,94.37
2018-04-30T10:41:02.019Z,91.70
2018-04-30T10:43:30.920Z,89.17
2018-04-30T10:45:59.761Z,95.10
2018-04-30T10:48:29.380Z,84.80
2018-04-30T10:50:58.140Z,93.67
2018-04-30T10:53:26.880Z,100.23
2018-04-30T10:55:55.667Z,92.37
2018-04-30T10:58:25.421Z,96.10
2018-04-30T11:00:54.241Z,94.73
2018-04-30T11:03:23.736Z,98.90
2018-04-30T11:05:53.409Z,111.83
2018-04-30T11:08:22.341Z,111.43
2018-04-30T11:10:52.014Z,99.20
2018-04-30T11:13:20.901Z,93.63
2018-04-30T11:15:49.693Z,98.33
2018-04-30T11:18:18.772Z,93.90
2018-04-30T11:20:47.580Z,105.93
2018-04-30T11:23:16.815Z,103.40
2018-04-30T11:25:46.729Z,94.27
2018-04-30T11:28:15.714Z,98.03
2018-04-30T11:30:45.545Z,99.50
2018-04-30T11:33:14.340Z,98.57
2018-04-30T11:35:44.128Z,102.77
2018-04-30T11:38:12.902Z,101.53
2018-04-30T11:40:42.327Z,96.60
2018-04-30T11:43:12.029Z,94.20
2018-04-30T11:45:41.342Z,96.50
2018-04-30T11:48:10.431Z,95.37
2018-04-30T11:50:39.303Z,89.67
2018-04-30T11:53:08.820Z,90.30
2018-04-30T11:55:37.662Z,98.47
2018-04-30T11:58:06.778Z,86.33
2018-04-30T12:00:36.377Z,83.87
2018-04-30T12:03:05.199Z,81.77
2018-04-30T12:05:34.805Z,87.10
2018-04-30T12:08:03.653Z,83.47
2018-04-30T12:10:32.350Z,88.17
2018-04-30T12:13:01.123Z,89.93
2018-04-30T12:15:29.860Z,91.47
2018-04-30T12:17:59.366Z,89.20
2018-04-30T12:20:28.314Z,84.67
2018-04-30T12:22:57.356Z,93.97
2018-04-30T12:25:26.202Z,78.87
2018-04-30T12:27:56.243Z,94.60
2018-04-30T12:30:25.649Z,94.30
2018-04-30T12:32:54.969Z,83.07
2018-04-30T12:35:24.412Z,84.17
2018-04-30T12:37:53.727Z,86.50
2018-04-30T12:40:23.179Z,86.20
2018-04-30T12:42:53.221Z,75.80
2018-04-30T12:45:28.639Z,89.20
2018-04-30T12:47:57.814Z,89.70
2018-04-30T12:50:26.880Z,88.63
2018-04-30T12:52:56.378Z,89.73
2018-04-30T12:55:25.076Z,80.60
2018-04-30T12:57:54.315Z,84.83
2018-04-30T13:00:24.268Z,76.47
2018-04-30T13:02:53.129Z,83.97
2018-04-30T13:05:22.242Z,70.10
2018-04-30T13:07:51.985Z,75.57
2018-04-30T13:10:21.235Z,83.83
2018-04-30T13:12:50.039Z,74.40
2018-04-30T13:15:19.195Z,72.47
2018-04-30T13:17:48.266Z,76.27
2018-04-30T13:20:17.905Z,81.00
2018-04-30T13:22:46.787Z,80.50
2018-04-30T13:25:15.669Z,74.87
2018-04-30T13:27:45.255Z,72.03
2018-04-30T13:30:14.289Z,76.03
2018-04-30T13:32:43.415Z,74.77
2018-04-30T13:35:13.207Z,74.53
2018-04-30T13:37:43.664Z,75.70
2018-04-30T13:40:12.390Z,86.97
2018-04-30T13:42:41.296Z,74.97
2018-04-30T13:45:10.607Z,75.00
2018-04-30T13:47:39.711Z,74.57
2018-04-30T13:50:09.309Z,74.10
2018-04-30T13:52:38.056Z,71.90
2018-04-30T13:55:07.028Z,80.80
2018-04-30T13:57:35.673Z,73.90
2018-04-30T14:00:05.452Z,69.93
2018-04-30T14:02:34.229Z,68.17
2018-04-30T14:05:03.088Z,76.77
2018-04-30T14:07:32.185Z,75.43
2018-04-30T14:10:01.011Z,71.27
2018-04-30T14:12:29.894Z,72.33
2018-04-30T14:14:58.658Z,62.47
2018-04-30T14:17:27.952Z,72.73
2018-04-30T14:19:57.477Z,55.67
2018-04-30T14:22:29.820Z,57.30
2018-04-30T14:24:59.850Z,50.93
2018-04-30T14:40:28.886Z,50.27
2018-04-30T14:42:57.515Z,47.13
2018-04-30T14:45:26.970Z,51.07
2018-04-30T14:47:56.124Z,51.90
2018-04-30T14:50:25.598Z,46.07
2018-04-30T14:52:56.100Z,47.67
2018-04-30T14:55:24.965Z,45.77
2018-04-30T14:57:53.776Z,42.87
2018-04-30T15:00:23.059Z,41.30
2018-04-30T15:02:52.093Z,48.00
2018-04-30T15:05:21.625Z,43.87
2018-04-30T15:07:50.371Z,46.60
2018-04-30T15:10:19.282Z,53.20
2018-04-30T15:12:48.788Z,49.00
2018-04-30T15:15:18.417Z,52.77
2018-04-30T15:17:47.136Z,44.30
2018-04-30T15:20:15.923Z,50.83
2018-04-30T15:22:45.025Z,44.20
2018-04-30T15:25:15.758Z,48.47
2018-04-30T15:27:44.590Z,54.73
2018-04-30T15:30:14.161Z,50.83
2018-04-30T15:32:42.909Z,54.30
2018-04-30T15:35:11.698Z,51.97
2018-04-30T15:37:40.831Z,51.57
2018-04-30T15:40:10.410Z,50.37
2018-04-30T15:42:39.181Z,51.23
2018-04-30T15:45:08.171Z,46.70
2018-04-30T15:47:36.991Z,53.77
2018-04-30T15:50:06.481Z,50.80
2018-04-30T15:52:35.189Z,52.17
2018-04-30T15:55:04.189Z,49.33
2018-04-30T15:57:32.850Z,55.30
2018-04-30T16:00:01.741Z,54.17
2018-04-30T16:02:30.745Z,60.47
2018-04-30T16:04:59.788Z,49.57
2018-04-30T16:07:29.255Z,53.83
2018-04-30T16:09:58.202Z,67.57
2018-04-30T16:12:27.009Z,61.83
2018-04-30T16:14:56.538Z,71.27
2018-04-30T16:17:25.363Z,60.00
2018-04-30T16:19:54.693Z,74.30
2018-04-30T16:22:23.577Z,62.63
2018-04-30T16:24:52.558Z,63.17
2018-04-30T16:27:22.084Z,68.83
2018-04-30T16:29:51.177Z,66.53
2018-04-30T16:32:20.016Z,59.23
2018-04-30T16:34:48.944Z,65.00
2018-04-30T16:37:17.969Z,70.67
2018-04-30T16:39:46.888Z,70.83
2018-04-30T16:42:15.639Z,64.47
2018-04-30T16:44:44.320Z,63.03
2018-04-30T16:47:13.326Z,72.43
2018-04-30T16:49:42.061Z,63.93
2018-04-30T16:52:11.617Z,74.93
2018-04-30T16:54:40.804Z,77.50
2018-04-30T16:57:11.395Z,66.60
2018-04-30T16:59:40.410Z,68.87
2018-04-30T17:02:10.271Z,231.87
2018-04-30T17:04:40.161Z,72.20
2018-04-30T17:07:09.603Z,73.57
2018-04-30T17:09:38.973Z,56.50
2018-04-30T17:12:07.863Z,72.43
2018-04-30T17:14:37.749Z,73.23
2018-04-30T17:17:10.203Z,80.53
2018-04-30T17:19:40.442Z,69.03
2018-04-30T17:22:11.203Z,67.20
2018-04-30T17:24:40.270Z,73.80
2018-04-30T17:27:09.816Z,67.43
2018-04-30T17:29:39.091Z,73.00
2018-04-30T17:32:07.832Z,74.07
2018-04-30T17:34:36.551Z,71.63
2018-04-30T17:37:06.058Z,71.57
2018-04-30T17:39:35.535Z,68.93
2018-04-30T17:42:05.395Z,75.57
2018-04-30T17:44:34.570Z,69.67
2018-04-30T17:47:04.138Z,67.87
2018-04-30T17:49:32.874Z,82.10
2018-04-30T17:52:01.711Z,82.03
2018-04-30T17:54:30.670Z,78.77
2018-04-30T17:56:59.550Z,84.60
2018-04-30T17:59:29.042Z,93.77
2018-04-30T18:01:58.904Z,77.50
2018-04-30T18:04:27.753Z,85.70
2018-04-30T18:06:56.733Z,83.57
2018-04-30T18:09:25.498Z,90.47
2018-04-30T18:11:54.288Z,80.00
2018-04-30T18:14:23.874Z,87.10
2018-04-30T18:16:53.763Z,80.70
2018-04-30T18:19:22.645Z,83.60
2018-04-30T18:21:52.413Z,88.27
2018-04-30T18:24:21.966Z,82.00
2018-04-30T18:26:51.685Z,80.23
2018-04-30T18:29:20.321Z,77.53
2018-04-30T18:31:49.827Z,82.77
2018-04-30T18:34:19.316Z,78.00
2018-04-30T18:36:48.097Z,80.43
2018-04-30T18:39:19.762Z,76.93
2018-04-30T18:54:48.772Z,78.90
2018-04-30T18:57:18.701Z,80.40
2018-04-30T18:59:47.603Z,75.77
2018-04-30T19:02:16.329Z,76.40
2018-04-30T19:04:45.227Z,83.87
2018-04-30T19:07:14.304Z,83.67
2018-04-30T19:09:43.039Z,84.03
2018-04-30T19:12:12.521Z,81.67
2018-04-30T19:14:41.318Z,79.33
2018-04-30T19:17:10.880Z,85.60
2018-04-30T19:19:39.641Z,82.80
2018-04-30T19:22:08.552Z,88.53
2018-04-30T19:24:37.509Z,78.90
2018-04-30T19:27:07.098Z,86.30
2018-04-30T19:29:36.009Z,83.37
2018-04-30T19:32:05.511Z,100.83
2018-04-30T19:34:35.105Z,97.67
2018-04-30T19:37:03.885Z,92.50
2018-04-30T19:39:32.718Z,92.00
2018-04-30T19:42:01.505Z,96.37
2018-04-30T19:44:30.180Z,99.93
2018-04-30T19:46:59.638Z,97.60
2018-04-30T19:49:28.361Z,101.67
2018-04-30T19:51:57.957Z,97.80
2018-04-30T19:54:27.167Z,92.03
2018-04-30T19:56:57.630Z,98.87
2018-04-30T19:59:27.018Z,102.73
2018-04-30T20:01:55.788Z,103.57
2018-04-30T20:04:24.681Z,95.23
2018-04-30T20:06:53.766Z,101.90
2018-04-30T20:09:23.444Z,101.53
2018-04-30T20:11:53.089Z,97.27
2018-04-30T20:14:22.677Z,100.30
2018-04-30T20:16:51.332Z,100.20
2018-04-30T20:19:20.185Z,102.07
2018-04-30T20:21:49.791Z,112.30
2018-04-30T20:24:18.633Z,104.07
2018-04-30T20:26:47.628Z,100.27
2018-04-30T20:29:17.052Z,99.27
2018-04-30T20:31:47.432Z,102.00
2018-04-30T20:44:01.296Z,112.83
2018-04-30T20:46:30.105Z,98.07
2018-04-30T20:48:59.270Z,110.40
2018-04-30T20:51:29.457Z,104.07
2018-04-30T20:53:59.557Z,108.67
2018-04-30T20:56:30.056Z,100.67
2018-04-30T20:58:59.521Z,107.03
2018-04-30T21:01:28.728Z,99.40
2018-04-30T21:03:57.681Z,98.07
2018-04-30T21:06:27.694Z,104.93
2018-04-30T21:09:08.437Z,118.57
2018-04-30T21:11:37.604Z,110.93
2018-04-30T21:14:06.478Z,106.77
2018-04-30T21:16:35.415Z,107.87
2018-04-30T21:19:04.256Z,107.40
2018-04-30T21:21:33.101Z,108.87
2018-04-30T21:24:02.804Z,115.93
2018-04-30T21:26:31.653Z,109.17
2018-04-30T21:29:00.535Z,116.40
2018-04-30T21:31:29.471Z,116.40
2018-04-30T21:33:59.159Z,113.07
2018-04-30T21:36:27.951Z,113.33
2018-04-30T21:38:56.618Z,121.70
2018-04-30T21:41:25.443Z,110.07
2018-04-30T21:43:55.115Z,113.90
2018-04-30T21:46:24.966Z,116.13
2018-04-30T21:48:54.396Z,117.73
2018-04-30T21:51:23.368Z,110.87
2018-04-30T21:53:52.029Z,107.40
2018-04-30T21:56:20.845Z,117.37
2018-04-30T21:58:50.471Z,112.37
2018-04-30T22:01:19.281Z,109.00
2018-04-30T22:03:48.147Z,110.63
2018-04-30T22:06:17.170Z,122.90
2018-04-30T22:08:46.018Z,112.63
2018-04-30T22:11:15.629Z,105.60
2018-04-30T22:13:45.268Z,108.70
2018-04-30T22:16:14.006Z,108.17
2018-04-30T22:18:42.905Z,104.17
2018-04-30T22:34:12.957Z,108.77
2018-04-30T22:36:41.807Z,113.80
2018-04-30T22:39:11.353Z,108.50
2018-04-30T22:41:40.138Z,106.87
2018-04-30T22:44:08.918Z,108.67
2018-04-30T22:46:37.736Z,112.23
2018-04-30T22:49:07.496Z,104.97
2018-04-30T22:51:37.066Z,107.57
2018-04-30T22:54:06.033Z,109.30
2018-04-30T22:56:34.885Z,104.43
2018-04-30T22:59:04.514Z,101.37
2018-04-30T23:01:33.325Z,105.37
2018-04-30T23:04:02.341Z,105.63
2018-04-30T23:06:31.301Z,101.67
2018-04-30T23:09:00.879Z,109.00
2018-04-30T23:11:30.442Z,111.57
2018-04-30T23:13:59.325Z,104.77
2018-04-30T23:16:29.374Z,111.23
2018-04-30T23:18:58.317Z,105.03
2018-04-30T23:21:27.083Z,102.70
2018-04-30T23:23:55.860Z,101.20
2018-04-30T23:26:24.701Z,110.43
2018-04-30T23:28:53.678Z,107.30
2018-04-30T23:31:22.726Z,110.43
2018-04-30T23:33:52.316Z,96.17
2018-04-30T23:36:21.124Z,96.50
2018-04-30T23:38:50.856Z,105.53
2018-04-30T23:41:19.647Z,99.00
2018-04-30T23:43:49.211Z,94.03
2018-04-30T23:46:18.301Z,94.53
2018-04-30T23:48:47.519Z,115.03
2018-04-30T23:51:17.039Z,100.83
2018-04-30T23:53:46.128Z,104.30
2018-04-30T23:56:15.006Z,102.07
2018-04-30T23:58:43.792Z,100.67
